Time;durP1;ratioP1;P1;durP2;ratioP2;P2;SDS_P1;SDS_P2;PMS_P1;PMS_P2;Temp;Humidity;BMP_temperature;BMP_pressure;BME280_temperature;BME280_humidity;BME280_pressure;Samples;Min_cycle;Max_cycle;Signal;HPM_P1;HPM_P2
2022/08/11 00:01:54;;;;;;;2.78;1.42;;;11.30;99.90;;;;;;5012481;28;20018;-76
2022/08/11 00:04:25;;;;;;;2.38;1.40;;;11.40;99.90;;;;;;5012504;28;20028;-77
2022/08/11 00:06:54;;;;;;;6.22;1.27;;;11.40;99.90;;;;;;5014325;28;20026;-77
2022/08/11 00:09:35;;;;;;;2.47;1.00;;;11.50;99.90;;;;;;5016543;28;20509;-77
2022/08/11 00:12:03;;;;;;;2.35;1.33;;;11.50;99.90;;;;;;5016521;28;20046;-76
2022/08/11 00:14:33;;;;;;;4.78;1.48;;;11.50;99.90;;;;;;5016758;28;20026;-76
2022/08/11 00:17:08;;;;;;;4.43;1.23;;;11.60;99.90;;;;;;5016869;28;20126;-77
2022/08/11 00:19:43;;;;;;;5.25;1.63;;;11.70;99.90;;;;;;5017086;28;20356;-78
2022/08/11 00:22:12;;;;;;;3.08;1.40;;;11.60;99.90;;;;;;5016490;28;20524;-76
2022/08/11 00:24:41;;;;;;;2.95;1.35;;;11.70;99.90;;;;;;5016279;28;20029;-77
2022/08/11 00:27:09;;;;;;;4.70;1.20;;;11.70;99.90;;;;;;5014972;28;20034;-76
2022/08/11 00:29:36;;;;;;;2.95;1.33;;;11.70;99.90;;;;;;4997049;28;20475;-76
2022/08/11 00:32:07;;;;;;;3.13;1.00;;;11.70;99.90;;;;;;5013795;28;20034;-77
2022/08/11 00:34:37;;;;;;;3.03;0.80;;;11.70;99.90;;;;;;5014264;28;20036;-76
2022/08/11 00:37:16;;;;;;;1.55;0.70;;;11.70;99.90;;;;;;5010608;28;20025;-78
2022/08/11 00:39:48;;;;;;;1.75;0.93;;;11.80;99.90;;;;;;5011619;28;20052;-77
2022/08/11 00:42:31;;;;;;;3.13;0.90;;;11.80;99.90;;;;;;5014648;28;20125;-76
2022/08/11 00:45:29;;;;;;;7.57;0.80;;;11.80;99.90;;;;;;5016312;28;20025;-77
2022/08/11 00:48:21;;;;;;;1.00;0.60;;;11.80;99.90;;;;;;5016279;28;20102;-76
2022/08/11 00:51:12;;;;;;;2.33;0.95;;;11.90;99.90;;;;;;4998988;28;20042;-77
2022/08/11 00:53:43;;;;;;;2.97;0.60;;;11.90;99.90;;;;;;5008164;28;20069;-76
2022/08/11 00:56:35;;;;;;;6.45;0.80;;;12.00;99.90;;;;;;5015867;28;20029;-76
2022/08/11 00:59:26;;;;;;;1.52;0.80;;;12.00;99.90;;;;;;5015430;28;20471;-77
2022/08/11 01:02:27;;;;;;;1.13;0.50;;;12.10;99.90;;;;;;5014168;28;20022;-76
2022/08/11 01:05:38;;;;;;;1.02;0.50;;;12.10;99.90;;;;;;5013981;28;20014;-76
2022/08/11 01:08:36;;;;;;;1.48;0.63;;;12.10;99.90;;;;;;4995432;28;20053;-76
2022/08/11 01:11:07;;;;;;;2.08;0.60;;;12.10;99.90;;;;;;5002191;28;20014;-78
2022/08/11 01:14:34;;;;;;;10.18;1.38;;;12.10;99.90;;;;;;5015184;28;20374;-77
2022/08/11 01:17:34;;;;;;;0.70;0.52;;;12.20;99.90;;;;;;4977526;28;20026;-76
2022/08/11 01:20:27;;;;;;;0.60;0.50;;;12.20;99.90;;;;;;4981524;28;20029;-76
2022/08/11 01:22:54;;;;;;;1.25;0.70;;;12.20;99.90;;;;;;5014844;28;20475;-76
2022/08/11 01:25:22;;;;;;;2.08;0.73;;;12.20;99.90;;;;;;5015613;28;20026;-77
2022/08/11 01:27:53;;;;;;;4.93;1.15;;;12.30;99.90;;;;;;5015635;28;20022;-77
2022/08/11 01:31:14;;;;;;;1.42;0.85;;;12.30;99.90;;;;;;5014956;28;20033;-76
2022/08/11 01:34:01;;;;;;;1.17;0.68;;;12.40;99.90;;;;;;5015198;28;20037;-78
2022/08/11 01:37:02;;;;;;;0.88;0.68;;;12.50;99.90;;;;;;5015314;28;20018;-77
2022/08/11 01:39:42;;;;;;;1.13;0.73;;;12.60;99.90;;;;;;4997449;28;20030;-76
2022/08/11 01:46:15;;;;;;;4.50;0.77;;;12.80;99.90;;;;;;5015382;28;20502;-77
2022/08/11 01:49:08;;;;;;;0.98;0.50;;;12.80;99.90;;;;;;5015289;28;20033;-76
2022/08/11 01:52:11;;;;;;;1.10;0.50;;;12.90;99.90;;;;;;5014517;28;20022;-76
2022/08/11 01:55:23;;;;;;;3.00;0.65;;;12.90;99.90;;;;;;4959232;28;20121;-79
2022/08/11 01:58:38;;;;;;;0.95;0.60;;;12.90;99.90;;;;;;5012660;28;20560;-78
2022/08/11 02:01:36;;;;;;;0.98;0.80;;;13.00;99.90;;;;;;4966077;28;20230;-78
2022/08/11 02:04:16;;;;;;;3.53;0.63;;;13.10;99.90;;;;;;5016702;28;20497;-77
2022/08/11 02:07:11;;;;;;;0.85;0.50;;;13.20;99.90;;;;;;5015329;28;20037;-77
2022/08/11 02:13:25;;;;;;;1.40;0.70;;;13.30;99.90;;;;;;5014579;28;20076;-78
2022/08/11 02:16:12;;;;;;;3.50;0.57;;;13.40;99.90;;;;;;5014943;28;20022;-78
2022/08/11 02:24:44;;;;;;;1.52;0.30;;;13.60;99.90;;;;;;5002723;28;20080;-77
2022/08/11 02:27:22;;;;;;;1.08;0.40;;;13.60;99.90;;;;;;4996637;28;20092;-77
2022/08/11 02:30:03;;;;;;;2.10;0.73;;;13.60;99.90;;;;;;5013810;28;20026;-78
2022/08/11 02:35:46;;;;;;;0.93;0.68;;;13.60;99.90;;;;;;5014562;28;20390;-77
2022/08/11 02:39:12;;;;;;;1.27;0.50;;;13.70;99.90;;;;;;5014499;28;20479;-77
2022/08/11 02:42:21;;;;;;;2.33;0.70;;;13.60;99.90;;;;;;4953796;29;20140;-78
2022/08/11 02:45:22;;;;;;;2.15;0.52;;;13.60;99.90;;;;;;4953815;29;20090;-76
2022/08/11 02:51:39;;;;;;;4.28;0.82;;;13.60;99.90;;;;;;5010922;28;20033;-77
2022/08/11 02:54:38;;;;;;;1.58;0.40;;;13.60;99.90;;;;;;5011358;28;20057;-78
2022/08/11 02:57:24;;;;;;;3.42;0.50;;;13.70;99.90;;;;;;4995347;28;20026;-77
2022/08/11 03:00:08;;;;;;;1.17;0.40;;;13.70;99.90;;;;;;5011305;28;20026;-77
2022/08/11 03:02:57;;;;;;;2.30;0.55;;;13.70;99.90;;;;;;5011884;28;20029;-77
2022/08/11 03:05:41;;;;;;;3.72;0.60;;;13.70;99.90;;;;;;5012474;28;20026;-77
2022/08/11 03:08:12;;;;;;;1.23;0.40;;;13.80;99.90;;;;;;4995226;28;20022;-78
2022/08/11 03:16:43;;;;;;;1.50;0.40;;;13.80;99.90;;;;;;5013358;28;20048;-78
2022/08/11 03:17:03;;;;;;;5.90;0.73;;;13.90;99.90;;;;;;4988645;28;20033;-78
2022/08/11 03:19:58;;;;;;;2.63;0.63;;;13.90;99.90;;;;;;4976177;28;20498;-78
2022/08/11 03:22:51;;;;;;;2.05;0.50;;;13.90;99.90;;;;;;4992645;28;20034;-76
2022/08/11 03:25:50;;;;;;;2.08;0.75;;;14.00;99.90;;;;;;4991485;28;20109;-76
2022/08/11 03:28:23;;;;;;;2.92;0.43;;;14.00;99.90;;;;;;4991292;28;20030;-81
2022/08/11 03:31:15;;;;;;;0.65;0.30;;;14.10;99.90;;;;;;4993236;28;20030;-77
2022/08/11 03:34:06;;;;;;;1.13;0.40;;;14.10;99.90;;;;;;4991893;28;20026;-77
2022/08/11 03:36:52;;;;;;;0.73;0.47;;;14.10;99.90;;;;;;4975048;28;20046;-79
2022/08/11 03:39:50;;;;;;;0.60;0.47;;;14.10;99.90;;;;;;4993071;28;20155;-77
2022/08/11 03:42:33;;;;;;;0.70;0.40;;;14.10;99.90;;;;;;4991565;28;20030;-77
2022/08/11 03:45:19;;;;;;;2.17;0.57;;;14.10;99.90;;;;;;4992975;28;20029;-77
2022/08/11 03:47:52;;;;;;;;;;;14.10;99.90;;;;;;4993414;28;20117;-77
2022/08/11 03:50:29;;;;;;;2.55;0.50;;;14.10;99.90;;;;;;4991581;28;19905;-77
2022/08/11 03:53:06;;;;;;;1.13;0.50;;;14.10;99.90;;;;;;4990977;28;20022;-78
2022/08/11 03:55:47;;;;;;;2.72;0.40;;;14.10;99.90;;;;;;4990049;28;20389;-81
2022/08/11 03:58:49;;;;;;;2.47;0.63;;;14.10;99.90;;;;;;4992645;28;20030;-81
2022/08/11 04:01:41;;;;;;;1.95;0.40;;;14.10;99.90;;;;;;4992097;28;20114;-82
2022/08/11 04:04:44;;;;;;;2.47;0.40;;;14.00;99.90;;;;;;4992703;28;20062;-79
2022/08/11 04:07:28;;;;;;;0.60;0.50;;;14.00;99.90;;;;;;4992728;28;20502;-78
2022/08/11 04:10:28;;;;;;;0.88;0.47;;;14.00;99.90;;;;;;4988805;28;20467;-79
2022/08/11 04:13:31;;;;;;;2.10;0.60;;;14.00;99.90;;;;;;5005223;28;20064;-79
2022/08/11 04:16:14;;;;;;;0.77;0.50;;;14.00;99.90;;;;;;4993532;28;20117;-78
2022/08/11 04:19:07;;;;;;;2.22;0.85;;;14.00;99.90;;;;;;5011778;28;20109;-78
2022/08/11 04:22:06;;;;;;;1.85;0.52;;;14.00;99.90;;;;;;5012039;28;20026;-79
2022/08/11 04:25:02;;;;;;;4.43;0.88;;;13.90;99.90;;;;;;5012143;28;20080;-78
2022/08/11 04:27:36;;;;;;;2.55;0.73;;;13.90;99.90;;;;;;5011361;28;20033;-79
2022/08/11 04:30:24;;;;;;;1.85;0.77;;;13.90;99.90;;;;;;5011606;28;20041;-79
2022/08/11 04:33:30;;;;;;;1.23;0.70;;;13.80;99.90;;;;;;5010775;28;20037;-78
2022/08/11 04:40:12;;;;;;;2.72;0.60;;;13.70;99.90;;;;;;5013424;28;20305;-79
2022/08/11 04:43:21;;;;;;;3.88;0.60;;;13.70;99.90;;;;;;4904302;29;20033;-78
2022/08/11 04:46:30;;;;;;;0.80;0.40;;;13.70;99.90;;;;;;5013023;28;20030;-78
2022/08/11 05:02:16;;;;;;;1.40;0.57;;;13.70;99.90;;;;;;5022291;28;20045;-80
2022/08/11 05:08:21;;;;;;;0.88;0.50;;;13.70;99.90;;;;;;5015464;28;20096;-79
2022/08/11 05:11:07;;;;;;;1.20;0.40;;;13.70;99.90;;;;;;5018551;28;20024;-80
2022/08/11 05:37:30;;;;;;;1.83;0.57;;;13.40;99.90;;;;;;5014576;28;20084;-80
2022/08/11 05:57:33;;;;;;;1.85;0.82;;;13.30;99.90;;;;;;5021495;28;20037;-78
2022/08/11 06:00:09;;;;;;;2.80;1.13;;;13.30;99.90;;;;;;5009874;28;20029;-81
2022/08/11 06:02:47;;;;;;;1.30;0.57;;;13.30;99.90;;;;;;5012376;28;20128;-79
2022/08/11 06:05:16;;;;;;;1.23;0.90;;;13.30;99.90;;;;;;5010814;28;20036;-79
2022/08/11 06:07:46;;;;;;;2.47;1.17;;;13.30;99.90;;;;;;5014221;28;20034;-80
2022/08/11 06:10:24;;;;;;;1.13;0.98;;;13.30;99.90;;;;;;5023871;28;20029;-79
2022/08/11 06:12:56;;;;;;;1.48;0.50;;;13.30;99.90;;;;;;5016103;28;20145;-80
2022/08/11 06:15:26;;;;;;;1.48;0.70;;;13.40;99.90;;;;;;5011761;28;20018;-80
2022/08/11 06:17:56;;;;;;;1.27;0.70;;;13.40;99.90;;;;;;5004649;28;20026;-79
2022/08/11 06:20:25;;;;;;;1.33;0.60;;;13.40;99.90;;;;;;5021075;28;20021;-80
2022/08/11 06:23:04;;;;;;;1.88;0.93;;;13.40;99.90;;;;;;5026574;28;20040;-80
2022/08/11 06:25:34;;;;;;;1.27;0.93;;;13.40;99.90;;;;;;5021088;28;20025;-80
2022/08/11 06:28:07;;;;;;;1.48;1.00;;;13.40;99.90;;;;;;5018499;28;20032;-79
2022/08/11 06:30:39;;;;;;;3.10;1.00;;;13.30;99.90;;;;;;5012718;28;20037;-80
2022/08/11 06:33:30;;;;;;;3.20;0.98;;;13.30;99.90;;;;;;5023932;28;20529;-79
2022/08/11 06:36:26;;;;;;;1.58;0.77;;;13.30;99.90;;;;;;5004655;28;20032;-78
2022/08/11 06:39:09;;;;;;;2.25;1.00;;;13.30;99.90;;;;;;4953693;28;20106;-79
2022/08/11 06:42:13;;;;;;;3.55;1.00;;;13.20;99.90;;;;;;4996251;28;20027;-79
2022/08/11 06:44:47;;;;;;;1.85;1.30;;;13.20;99.90;;;;;;4994511;28;20030;-79
2022/08/11 06:47:19;;;;;;;2.63;1.15;;;13.10;99.90;;;;;;4993706;28;20129;-79
2022/08/11 06:52:39;;;;;;;1.85;1.00;;;13.10;99.90;;;;;;4995238;28;20037;-78
2022/08/11 07:01:12;;;;;;;1.98;0.98;;;13.10;99.90;;;;;;5011231;28;20076;-79
2022/08/11 07:04:06;;;;;;;1.77;1.13;;;13.10;99.90;;;;;;5012935;28;20498;-80
2022/08/11 07:15:43;;;;;;;2.38;1.00;;;13.00;99.90;;;;;;5012314;28;20104;-79
2022/08/11 07:30:00;;;;;;;2.15;1.02;;;12.90;99.90;;;;;;4999574;28;20022;-80
2022/08/11 07:32:32;;;;;;;5.22;1.00;;;12.80;99.90;;;;;;4995642;28;20040;-80
2022/08/11 07:35:44;;;;;;;2.20;1.23;;;12.80;99.90;;;;;;4993683;28;20026;-80
2022/08/11 07:38:18;;;;;;;3.40;0.90;;;12.80;99.90;;;;;;4991387;28;20046;-79
2022/08/11 07:40:47;;;;;;;2.10;1.30;;;12.80;99.90;;;;;;4994318;28;20406;-79
2022/08/11 07:43:15;;;;;;;4.22;1.70;;;12.80;99.90;;;;;;4992273;28;20173;-79
2022/08/11 07:54:07;;;;;;;1.88;1.05;;;12.70;99.90;;;;;;4995360;28;20092;-80
2022/08/11 07:56:36;;;;;;;2.20;1.08;;;12.70;99.90;;;;;;4994413;28;20054;-79
2022/08/11 08:18:35;;;;;;;4.10;1.30;;;12.70;99.90;;;;;;4993408;28;20385;-79
2022/08/11 08:21:11;;;;;;;6.72;1.65;;;12.70;99.90;;;;;;4991793;28;20014;-79
2022/08/11 08:23:46;;;;;;;3.53;1.95;;;12.70;99.90;;;;;;4993502;28;20026;-79
2022/08/11 08:31:51;;;;;;;3.53;1.00;;;12.60;99.90;;;;;;4998017;28;20396;-79
2022/08/11 08:34:19;;;;;;;5.35;1.40;;;12.60;99.90;;;;;;4996218;28;20588;-79
2022/08/11 08:36:50;;;;;;;2.63;1.50;;;12.60;99.90;;;;;;4995350;28;20027;-79
2022/08/11 08:39:22;;;;;;;4.70;2.20;;;12.60;99.90;;;;;;4998315;28;20046;-79
2022/08/11 08:41:58;;;;;;;3.17;1.75;;;12.60;99.90;;;;;;4999738;28;20072;-80
2022/08/11 08:44:27;;;;;;;2.47;1.65;;;12.60;99.90;;;;;;4978313;28;20415;-79
2022/08/11 08:46:57;;;;;;;2.75;1.38;;;12.60;99.90;;;;;;4997412;28;20038;-79
2022/08/11 08:49:36;;;;;;;2.20;1.23;;;12.60;99.90;;;;;;4996196;28;20081;-82
2022/08/11 08:52:07;;;;;;;5.60;1.35;;;12.60;99.90;;;;;;4996136;28;20014;-79
2022/08/11 08:54:41;;;;;;;7.38;1.52;;;12.60;99.90;;;;;;4998356;28;20448;-78
2022/08/11 08:57:10;;;;;;;2.38;1.25;;;12.60;99.90;;;;;;4997862;28;20065;-79
2022/08/11 08:59:41;;;;;;;1.90;1.23;;;12.50;99.90;;;;;;4993969;28;20484;-77
2022/08/11 09:02:12;;;;;;;4.38;1.70;;;12.50;99.90;;;;;;4996414;28;20023;-78
2022/08/11 09:04:43;;;;;;;2.63;1.52;;;12.60;99.90;;;;;;4994721;28;20022;-79
2022/08/11 09:07:14;;;;;;;2.75;1.33;;;12.50;99.90;;;;;;4996144;28;20033;-79
2022/08/11 09:09:44;;;;;;;2.28;1.50;;;12.50;99.90;;;;;;4996223;28;20105;-78
2022/08/11 09:12:13;;;;;;;3.22;1.60;;;12.50;99.90;;;;;;5013450;28;20052;-78
2022/08/11 09:15:04;;;;;;;1.73;1.23;;;12.50;99.90;;;;;;5013674;28;20026;-78
2022/08/11 09:17:46;;;;;;;2.65;1.30;;;12.50;99.90;;;;;;5006320;28;20052;-78
2022/08/11 09:20:23;;;;;;;2.83;1.45;;;12.50;99.90;;;;;;5013454;28;20022;-79
2022/08/11 09:28:29;;;;;;;1.98;1.38;;;12.50;99.90;;;;;;5012206;28;20033;-78
2022/08/11 09:31:00;;;;;;;3.30;1.35;;;12.40;99.90;;;;;;5014405;28;20030;-79
2022/08/11 09:33:29;;;;;;;5.95;1.65;;;12.50;99.90;;;;;;5014832;28;20014;-77
2022/08/11 09:40:27;;;;;;;4.40;1.17;;;12.50;99.90;;;;;;5014214;28;20498;-78
2022/08/11 09:41:34;;;;;;;2.75;1.30;;;12.50;99.90;;;;;;5013785;28;20061;-77
2022/08/11 09:46:49;;;;;;;;;;;12.50;99.90;;;;;;5015098;28;20125;-80
2022/08/11 09:49:20;;;;;;;5.72;1.73;;;12.40;99.90;;;;;;5014320;28;19980;-78
2022/08/11 09:51:50;;;;;;;2.92;1.25;;;12.40;99.90;;;;;;5011264;28;20025;-79
2022/08/11 09:54:22;;;;;;;3.22;1.33;;;12.40;99.90;;;;;;5013716;28;20026;-78
2022/08/11 09:59:40;;;;;;;2.40;1.30;;;12.40;99.90;;;;;;5013681;28;20033;-79
2022/08/11 10:02:09;;;;;;;4.75;1.60;;;12.40;99.90;;;;;;5013445;28;20068;-77
2022/08/11 10:04:46;;;;;;;5.80;1.50;;;12.40;99.90;;;;;;5013408;28;20960;-78
2022/08/11 10:07:19;;;;;;;1.52;1.10;;;12.40;99.90;;;;;;5014170;28;20037;-78
2022/08/11 10:10:02;;;;;;;4.32;1.80;;;12.40;99.90;;;;;;5011681;28;20025;-79
2022/08/11 10:12:36;;;;;;;4.65;1.27;;;12.40;99.90;;;;;;5012667;28;20511;-79
2022/08/11 10:21:10;;;;;;;3.38;1.50;;;12.30;99.90;;;;;;5014034;28;20513;-80
2022/08/11 10:34:51;;;;;;;4.75;1.42;;;12.40;99.90;;;;;;4998087;28;20584;-78
2022/08/11 10:37:22;;;;;;;2.63;1.75;;;12.30;99.90;;;;;;4995616;28;20038;-78
2022/08/11 10:39:51;;;;;;;2.22;1.50;;;12.30;99.90;;;;;;4996168;28;20022;-78
2022/08/11 10:47:56;;;;;;;3.47;1.50;;;12.30;99.90;;;;;;4993746;28;20114;-78
2022/08/11 10:58:49;;;;;;;;;;;12.30;99.90;;;;;;5007035;28;20493;-78
2022/08/11 11:01:34;;;;;;;2.95;1.70;;;12.30;99.90;;;;;;5007386;28;20278;-78
2022/08/11 11:04:10;;;;;;;1.60;1.25;;;12.30;99.90;;;;;;5006907;28;20097;-79
2022/08/11 11:07:03;;;;;;;2.55;1.13;;;12.30;99.90;;;;;;5006301;28;20478;-78
2022/08/11 11:09:32;;;;;;;4.93;2.13;;;12.30;99.90;;;;;;4990973;28;20181;-78
2022/08/11 11:18:18;;;;;;;3.97;1.80;;;12.30;99.90;;;;;;4995392;28;20395;-78
2022/08/11 11:20:56;;;;;;;3.45;1.90;;;12.30;99.90;;;;;;4994307;28;20371;-78
2022/08/11 11:23:51;;;;;;;3.30;1.85;;;12.30;99.90;;;;;;4996394;28;20025;-78
2022/08/11 11:26:27;;;;;;;2.30;1.50;;;12.20;99.90;;;;;;4997621;28;20479;-78
2022/08/11 11:29:23;;;;;;;4.47;1.70;;;12.20;99.90;;;;;;4995643;28;20499;-78
2022/08/11 11:32:27;;;;;;;3.33;1.50;;;12.20;99.90;;;;;;4994928;28;20019;-79
2022/08/11 11:35:13;;;;;;;3.33;1.52;;;12.20;99.90;;;;;;4980997;28;20057;-78
2022/08/11 11:37:46;;;;;;;3.92;1.60;;;12.20;99.90;;;;;;4978043;28;20434;-78
2022/08/11 11:40:16;;;;;;;2.85;1.60;;;12.20;99.90;;;;;;4996018;28;20157;-80
2022/08/11 11:42:45;;;;;;;2.47;1.67;;;12.20;99.90;;;;;;4993396;28;20033;-78
2022/08/11 11:45:19;;;;;;;4.75;1.88;;;12.20;99.90;;;;;;4996557;28;20041;-78
2022/08/11 11:47:52;;;;;;;6.15;1.55;;;12.20;99.90;;;;;;4993975;28;20514;-80
2022/08/11 11:50:29;;;;;;;2.83;1.90;;;12.20;99.90;;;;;;5009289;28;20026;-78
2022/08/11 11:52:59;;;;;;;2.65;1.42;;;12.20;99.90;;;;;;5012421;28;20452;-76
2022/08/11 11:55:29;;;;;;;2.72;1.48;;;12.20;99.90;;;;;;5012450;28;20391;-79
2022/08/11 12:03:33;;;;;;;3.45;2.35;;;12.10;99.90;;;;;;5015377;28;20390;-78
2022/08/11 12:06:01;;;;;;;6.22;1.92;;;12.10;99.90;;;;;;5015545;28;20467;-78
2022/08/11 12:08:29;;;;;;;2.00;1.70;;;12.10;99.90;;;;;;5015812;28;20371;-78
2022/08/11 12:13:53;;;;;;;2.75;1.50;;;12.10;99.90;;;;;;5016088;28;20088;-79
2022/08/11 12:16:22;;;;;;;2.78;1.77;;;12.10;99.90;;;;;;5006933;28;20026;-78
2022/08/11 12:18:53;;;;;;;2.25;1.60;;;12.20;99.90;;;;;;4998821;28;20484;-78
2022/08/11 12:21:22;;;;;;;3.50;1.63;;;12.20;99.90;;;;;;4998719;28;20031;-78
2022/08/11 12:29:26;;;;;;;3.03;1.70;;;12.20;99.90;;;;;;4999966;28;20025;-78
2022/08/11 12:31:54;;;;;;;8.70;1.50;;;12.20;99.90;;;;;;5000491;28;20464;-78
2022/08/11 12:34:23;;;;;;;4.80;2.13;;;12.20;99.90;;;;;;5006312;28;20436;-78
2022/08/11 12:36:56;;;;;;;3.40;1.52;;;12.20;99.90;;;;;;5008604;28;20026;-78
2022/08/11 12:45:28;;;;;;;2.90;1.40;;;12.20;99.90;;;;;;5014475;28;20495;-77
2022/08/11 12:54:43;;;;;;;4.38;1.73;;;12.20;99.90;;;;;;5016065;28;20482;-78
2022/08/11 13:05:38;;;;;;;2.13;1.48;;;12.10;99.90;;;;;;5015341;28;20438;-78
2022/08/11 13:08:06;;;;;;;2.30;1.60;;;12.10;99.90;;;;;;5015305;28;20030;-78
2022/08/11 13:13:20;;;;;;;3.05;1.70;;;12.10;99.90;;;;;;5014545;28;20080;-77
2022/08/11 13:15:49;;;;;;;3.53;1.48;;;12.10;99.90;;;;;;5015243;28;20101;-77
2022/08/11 13:18:21;;;;;;;3.38;1.55;;;12.10;99.90;;;;;;5015027;28;20033;-77
2022/08/11 13:20:53;;;;;;;3.35;1.67;;;12.10;99.90;;;;;;5015319;28;20371;-78
2022/08/11 13:23:23;;;;;;;3.40;1.45;;;12.20;99.90;;;;;;5015113;28;20031;-77
2022/08/11 13:25:53;;;;;;;5.47;1.50;;;12.20;99.90;;;;;;5014833;28;20552;-77
2022/08/11 13:28:22;;;;;;;3.13;1.48;;;12.20;99.90;;;;;;5014933;28;20029;-76
2022/08/11 13:31:13;;;;;;;4.70;1.90;;;12.10;99.90;;;;;;5015104;28;20098;-78
2022/08/11 13:33:51;;;;;;;3.55;1.20;;;12.20;99.90;;;;;;5012432;28;20025;-77
2022/08/11 13:36:27;;;;;;;2.13;1.30;;;12.20;99.90;;;;;;5014796;28;20093;-76
2022/08/11 13:38:58;;;;;;;3.78;1.85;;;12.20;99.90;;;;;;5014505;28;20034;-76
2022/08/11 13:41:38;;;;;;;3.22;1.48;;;12.20;99.90;;;;;;5012727;28;20048;-77
2022/08/11 13:44:07;;;;;;;6.25;1.10;;;12.20;99.90;;;;;;5014767;28;20022;-76
2022/08/11 13:46:36;;;;;;;2.10;1.33;;;12.20;99.90;;;;;;5014556;28;20030;-78
2022/08/11 13:49:04;;;;;;;2.33;1.30;;;12.20;99.90;;;;;;5012308;28;20018;-78
2022/08/11 13:51:33;;;;;;;2.72;1.58;;;12.20;99.90;;;;;;5014353;28;20103;-77
2022/08/11 13:54:05;;;;;;;5.60;1.98;;;12.20;99.90;;;;;;5014537;28;20487;-78
2022/08/11 13:56:34;;;;;;;3.50;1.55;;;12.20;99.90;;;;;;5014680;28;20022;-77
2022/08/11 13:59:02;;;;;;;2.00;1.20;;;12.20;99.90;;;;;;5014168;28;20022;-78
2022/08/11 14:01:32;;;;;;;5.18;1.30;;;12.20;99.90;;;;;;5014424;28;20025;-78
2022/08/11 14:04:08;;;;;;;5.57;1.60;;;12.20;99.90;;;;;;5014537;28;20384;-76
2022/08/11 14:06:38;;;;;;;5.45;1.63;;;12.30;99.90;;;;;;5013785;28;20037;-77
2022/08/11 14:09:09;;;;;;;2.78;1.48;;;12.20;99.90;;;;;;5014092;28;20559;-77
2022/08/11 14:14:32;;;;;;;1.75;1.13;;;12.20;99.90;;;;;;5014134;28;20076;-78
2022/08/11 14:17:06;;;;;;;5.18;1.42;;;12.20;99.90;;;;;;5014185;28;20119;-77
2022/08/11 14:19:38;;;;;;;4.22;1.20;;;12.20;99.90;;;;;;5013800;28;20064;-78
2022/08/11 14:22:07;;;;;;;4.10;1.63;;;12.20;99.90;;;;;;5014127;28;20026;-78
2022/08/11 14:24:48;;;;;;;6.10;1.10;;;12.20;99.90;;;;;;5011837;28;20114;-78
2022/08/11 14:27:17;;;;;;;2.80;1.17;;;12.20;99.90;;;;;;4993338;28;20391;-78
2022/08/11 14:29:46;;;;;;;3.30;1.30;;;12.20;99.90;;;;;;4995271;28;20022;-78
2022/08/11 14:32:14;;;;;;;2.38;1.38;;;12.20;99.90;;;;;;5012795;28;20026;-77
2022/08/11 14:34:43;;;;;;;4.00;1.60;;;12.20;99.90;;;;;;5012571;28;20032;-78
2022/08/11 14:37:16;;;;;;;4.10;1.60;;;12.20;99.90;;;;;;5013720;28;20018;-78
2022/08/11 14:39:53;;;;;;;3.00;1.55;;;12.20;99.90;;;;;;5014811;28;20029;-78
2022/08/11 14:48:08;;;;;;;2.45;1.40;;;12.20;99.90;;;;;;5014788;28;20045;-78
2022/08/11 14:50:36;;;;;;;2.83;1.75;;;12.20;99.90;;;;;;5014546;28;20025;-78
2022/08/11 14:53:10;;;;;;;1.73;1.20;;;12.20;99.90;;;;;;5014381;28;20033;-78
2022/08/11 14:58:29;;;;;;;3.40;1.33;;;12.20;99.90;;;;;;5014755;28;20501;-77
2022/08/11 15:01:00;;;;;;;3.08;1.17;;;12.10;99.90;;;;;;5014251;28;20026;-78
2022/08/11 15:03:32;;;;;;;5.03;1.80;;;12.20;99.90;;;;;;5014135;28;20043;-78
2022/08/11 15:06:01;;;;;;;3.85;1.77;;;12.10;99.90;;;;;;5014268;28;20057;-78
2022/08/11 15:17:06;;;;;;;5.13;1.58;;;12.10;99.90;;;;;;5014362;28;20497;-78
2022/08/11 15:17:16;;;;;;;3.75;1.85;;;12.20;99.90;;;;;;5013954;28;20108;-78
2022/08/11 15:25:28;;;;;;;2.38;1.42;;;12.10;99.90;;;;;;5014472;28;20536;-78
2022/08/11 15:39:15;;;;;;;3.85;1.65;;;12.10;99.90;;;;;;4999164;28;20068;-77
2022/08/11 15:47:32;;;;;;;4.10;1.40;;;12.00;99.90;;;;;;5014111;28;20442;-77
2022/08/11 15:50:04;;;;;;;2.45;1.40;;;12.00;99.90;;;;;;5013380;28;20036;-77
2022/08/11 15:52:43;;;;;;;2.83;1.58;;;12.00;99.90;;;;;;5014058;28;20050;-78
2022/08/11 15:55:10;;;;;;;4.85;1.98;;;12.00;99.90;;;;;;5013721;28;20029;-77
2022/08/11 16:06:01;;;;;;;2.30;1.42;;;11.80;99.90;;;;;;5012052;28;20430;-79
2022/08/11 16:08:29;;;;;;;2.97;1.77;;;11.80;99.90;;;;;;5012834;28;20064;-78
2022/08/11 16:10:57;;;;;;;3.92;1.60;;;11.80;99.90;;;;;;5012769;28;20026;-77
2022/08/11 16:16:15;;;;;;;2.63;1.80;;;11.70;99.90;;;;;;5012933;28;20198;-78
2022/08/11 16:18:56;;;;;;;4.90;1.80;;;11.70;99.90;;;;;;5013147;28;20082;-78
2022/08/11 16:21:42;;;;;;;3.22;1.67;;;11.70;99.90;;;;;;5013074;28;20022;-78
2022/08/11 16:24:14;;;;;;;;;;;11.70;99.90;;;;;;5013850;28;20096;-78
2022/08/11 16:26:43;;;;;;;3.90;1.90;;;11.70;99.90;;;;;;5013142;28;20374;-78
2022/08/11 16:29:11;;;;;;;4.57;2.10;;;11.70;99.90;;;;;;5012548;28;20161;-78
2022/08/11 16:31:41;;;;;;;2.88;1.98;;;11.70;99.90;;;;;;5012262;28;20477;-79
2022/08/11 16:38:33;;;;;;;2.90;1.52;;;11.60;99.90;;;;;;5011560;28;20018;-78
2022/08/11 16:39:44;;;;;;;4.35;2.08;;;11.70;99.90;;;;;;5012410;28;20485;-78
2022/08/11 16:47:44;;;;;;;;;;;11.60;99.90;;;;;;5013838;28;20509;-78
2022/08/11 16:50:12;;;;;;;2.40;1.42;;;11.60;99.90;;;;;;5016625;28;19921;-78
2022/08/11 16:52:40;;;;;;;4.63;1.70;;;11.70;99.90;;;;;;5016402;28;20018;-79
2022/08/11 16:55:09;;;;;;;6.35;2.17;;;11.60;99.90;;;;;;5016714;28;20026;-79
2022/08/11 17:00:22;;;;;;;;;;;11.60;99.90;;;;;;5017036;28;20072;-79
2022/08/11 17:14:45;;;;;;;3.47;1.98;;;11.70;99.90;;;;;;5016561;28;20124;-79
2022/08/11 17:17:17;;;;;;;6.82;1.40;;;11.70;99.90;;;;;;5016477;28;20021;-78
2022/08/11 17:19:51;;;;;;;5.18;2.05;;;11.70;99.90;;;;;;5016144;28;20054;-79
2022/08/11 17:25:08;;;;;;;4.80;1.50;;;11.60;99.90;;;;;;5016710;28;20057;-78
2022/08/11 17:27:36;;;;;;;4.45;1.77;;;11.60;99.90;;;;;;5015990;28;20464;-79
2022/08/11 17:30:08;;;;;;;3.10;1.67;;;11.60;99.90;;;;;;5015849;28;20072;-78
2022/08/11 17:35:37;;;;;;;3.88;2.00;;;11.60;99.90;;;;;;5016379;28;20482;-79
2022/08/11 17:38:11;;;;;;;2.28;1.45;;;11.60;99.90;;;;;;4998447;28;20390;-78
2022/08/11 17:49:13;;;;;;;3.17;1.63;;;11.60;99.90;;;;;;5015931;28;20045;-78
2022/08/11 18:00:17;;;;;;;5.63;1.60;;;11.60;99.90;;;;;;5015622;28;20112;-78
2022/08/11 18:05:35;;;;;;;3.55;1.55;;;11.50;99.90;;;;;;5015806;28;20037;-79
